Terminal Aerodrome Forecast
Issued by NWS Topeka, KS

Home | Current Version | Previous Version | Graphics & Text | Print | Product List | Glossary On
Versions: 1 2 3 4 5 6 7 8 9 10 11 12 13
672
FTUS43 KTOP 211132
TAFTOP
TAF
KTOP 211132Z 2112/2212 09005KT 6SM -RA BKN040 OVC150
     FM211900 06007KT P6SM VCSH FEW030 OVC040=

USA.gov is the U.S. government's official web portal to all federal, state and local government web resources and services.